Flight Track Log - Related Links

Times and Time Zones

All times are in EDT time to prevent confusion due to time zone crossing. See the N4887J flight status page for this flight to view local times or setup timezone preferences in your user account.


Time Position Orientation Groundspeed Altitude Reporting Facility
EDT Latitude Longitude Course Direction KTS MPH feet Rate Location/Type
Mon 01:47:32 PM 39.8000 -86.3667 270° West 128 147 2,600  Level Indianapolis TRACON
Mon 01:48:45 PM 39.8000 -86.4333 270° West 126 145 3,700 898 Climbing Indianapolis TRACON
Mon 01:49:39 PM 39.8000 -86.4500 237° Southwest 105 121 4,500 842 Climbing Indianapolis TRACON
Mon 01:50:39 PM 39.7833 -86.4833 270° West 100 115 5,300 750 Climbing Indianapolis TRACON
Mon 01:51:39 PM 39.7833 -86.5333 218° Southwest 99 114 6,000 684 Climbing Indianapolis TRACON
Mon 01:52:33 PM 39.7667 -86.5500 270° West 101 116 6,600 684 Climbing Indianapolis TRACON
Mon 01:53:33 PM 39.7667 -86.5833 270° West 101 116 7,300 700 Climbing Indianapolis TRACON
Mon 01:54:33 PM 39.7667 -86.6333 237° Southwest 101 116 8,000 333 Climbing Indianapolis TRACON
Mon 01:55:39 PM 39.7500 -86.6667 252° West 117 135 8,000 Level Indianapolis TRACON
Mon 02:21:24 PM 39.4619 -87.8006 267° West 139 160 8,100 Climbing Kansas City Center
Mon 02:22:24 PM 39.4603 -87.8464 261° West 134 154 8,100  Level Kansas City Center
Mon 02:23:24 PM 39.4544 -87.8928 247° West 129 148 8,100  Level Kansas City Center
Mon 02:24:24 PM 39.4403 -87.9369 249° West 134 154 8,100  Level Kansas City Center
Mon 02:25:24 PM 39.4281 -87.9783 264° West 134 154 8,100 -50 Level Kansas City Center
Mon 02:26:24 PM 39.4242 -88.0244 269° West 127 146 8,000 -69 Descending Kansas City Center
Mon 03:04:38 PM 39.4003 -89.5650 228° Southwest 139 160 5,400 -72 Descending FAA TRACON SMA TRACON (SMA)
Mon 03:05:19 PM 39.3903 -89.5792 227° Southwest 138 159 5,200 -300 Descending FAA TRACON SMA TRACON (SMA)
Mon 03:05:58 PM 39.3667 -89.6117 231° Southwest 135 155 5,000 -152 Descending FAA TRACON SMA TRACON (SMA)
Mon 03:06:38 PM 39.3511 -89.6367 225° Southwest 127 146 5,000  Level FAA TRACON SMA TRACON (SMA)
Mon 03:07:18 PM 39.3358 -89.6567 222° Southwest 128 147 5,000  Level FAA TRACON SMA TRACON (SMA)
Mon 03:07:58 PM 39.3172 -89.6781 222° Southwest 129 148 5,000  Level FAA TRACON SMA TRACON (SMA)
Mon 03:08:38 PM 39.2983 -89.7000 216° Southwest 130 150 5,000  Level FAA TRACON SMA TRACON (SMA)
Mon 03:09:18 PM 39.2803 -89.7172 217° Southwest 134 154 5,000  Level FAA TRACON SMA TRACON (SMA)
Mon 03:09:58 PM 39.2600 -89.7372 225° Southwest 134 154 5,000  Level FAA TRACON SMA TRACON (SMA)
Mon 03:10:39 PM 39.2419 -89.7603 222° Southwest 133 153 5,000  Level FAA TRACON SMA TRACON (SMA)
Mon 03:11:18 PM 39.2250 -89.7800 220° Southwest 134 154 5,000 -304 Level FAA TRACON SMA TRACON (SMA)
Mon 03:11:58 PM 39.2042 -89.8025 219° Southwest 143 165 4,600 -600 Descending FAA TRACON SMA TRACON (SMA)
Mon 03:12:38 PM 39.1817 -89.8258 39° Northeast 150 173 4,200 -600 Descending FAA TRACON SMA TRACON (SMA)
Mon 03:20:15 PM 39.4234 -89.5747 229° Southwest  Level FlightAware Approximate
Mon 03:21:15 PM 39.3951 -89.6160 229° Southwest  Level FlightAware Approximate
Mon 03:22:15 PM 39.3668 -89.6574 228° Southwest  Level FlightAware Approximate
Mon 03:23:15 PM 39.3386 -89.6987 228° Southwest  Level FlightAware Approximate
Mon 03:24:15 PM 39.3102 -89.7400 228° Southwest  Level FlightAware Approximate
Mon 03:25:15 PM 39.2819 -89.7812 228° Southwest  Level FlightAware Approximate
Mon 03:26:15 PM 39.2536 -89.8224 280° West  Level FlightAware Approximate
Mon 03:27:15 PM 39.2600 -89.8710 226° Southwest  Level FlightAware Approximate
Mon 03:28:15 PM 39.2304 -89.9108 226° Southwest  Level FlightAware Approximate
Mon 03:29:15 PM 39.2009 -89.9505 226° Southwest  Level FlightAware Approximate
Mon 03:30:15 PM 39.1714 -89.9902 226° Southwest  Level FlightAware Approximate
Mon 03:31:15 PM 39.1418 -90.0299 226° Southwest  Level FlightAware Approximate
Mon 03:32:15 PM 39.1122 -90.0695 226° Southwest  Level FlightAware Approximate
Mon 03:33:15 PM 39.0826 -90.1092 226° Southwest  Level FlightAware Approximate
Mon 03:34:15 PM 39.0530 -90.1487 226° Southwest  Level FlightAware Approximate
Mon 03:35:15 PM 39.0234 -90.1883 226° Southwest  Level FlightAware Approximate
Mon 03:36:15 PM 38.9938 -90.2278 226° Southwest  Level FlightAware Approximate
Mon 03:37:15 PM 38.9641 -90.2672 226° Southwest  Level FlightAware Approximate
Mon 03:38:15 PM 38.9344 -90.3067 226° Southwest  Level FlightAware Approximate
Mon 03:39:15 PM 38.9048 -90.3461 226° Southwest  Level FlightAware Approximate
Mon 03:40:15 PM 38.8751 -90.3855 226° Southwest  Level FlightAware Approximate
Mon 03:41:15 PM 38.8454 -90.4248 226° Southwest  Level FlightAware Approximate
Mon 03:42:15 PM 38.8157 -90.4641 226° Southwest  Level FlightAware Approximate
Mon 03:43:15 PM 38.7860 -90.5034 226° Southwest  Level FlightAware Approximate
Mon 03:44:15 PM 38.7562 -90.5426 226° Southwest  Level FlightAware Approximate
Mon 03:45:15 PM 38.7265 -90.5818 224° Southwest  Level FlightAware Approximate
Mon 03:46:15 PM 38.6958 -90.6195 217° Southwest  Level FlightAware Approximate
Mon 03:47:15 PM 38.6618 -90.6524 217° Southwest  Level Estimated

Login

Don't have an account? Register now (free) for customized features, flight alerts, and more!